createdAt,value
2023-04-01T00:03:24.892Z,13.93
2023-04-01T00:08:31.314Z,13.86
2023-04-01T00:13:35.617Z,13.74
2023-04-01T00:18:39.483Z,13.72
2023-04-01T00:23:42.147Z,13.47
2023-04-01T00:28:49.743Z,13.56
2023-04-01T00:34:00.580Z,13.49
2023-04-01T00:39:06.659Z,13.45
2023-04-01T00:44:29.630Z,13.43
2023-04-01T00:49:38.329Z,13.27
2023-04-01T00:54:43.476Z,13.12
2023-04-01T00:59:47.749Z,13.11
2023-04-01T01:04:52.579Z,13.01
2023-04-01T01:10:21.630Z,12.93
2023-04-01T01:15:32.880Z,12.87
2023-04-01T01:20:50.570Z,12.83
2023-04-01T01:26:32.583Z,12.70
2023-04-01T01:31:42.717Z,12.63
2023-04-01T01:36:47.071Z,12.65
2023-04-01T01:41:51.679Z,12.47
2023-04-01T01:46:54.426Z,12.52
2023-04-01T01:51:57.211Z,12.47
2023-04-01T01:57:10.963Z,12.38
2023-04-01T02:02:17.298Z,12.28
2023-04-01T02:07:23.591Z,12.33
2023-04-01T02:12:26.363Z,12.34
2023-04-01T02:17:32.492Z,12.36
2023-04-01T02:22:42.874Z,12.31
2023-04-01T02:27:46.280Z,12.24
2023-04-01T02:32:48.900Z,12.22
2023-04-01T02:37:53.682Z,12.15
2023-04-01T02:42:56.212Z,11.97
2023-04-01T02:47:58.442Z,11.93
2023-04-01T02:53:04.070Z,11.93
2023-04-01T02:58:06.272Z,11.91
2023-04-01T03:03:10.936Z,11.86
2023-04-01T03:08:13.808Z,11.80
2023-04-01T03:13:16.363Z,11.76
2023-04-01T03:18:22.328Z,11.80
2023-04-01T03:23:25.444Z,11.79
2023-04-01T03:28:27.947Z,11.76
2023-04-01T03:33:32.976Z,11.70
2023-04-01T03:38:37.872Z,11.70
2023-04-01T03:43:40.160Z,11.68
2023-04-01T03:48:42.801Z,11.69
2023-04-01T03:53:45.124Z,11.58
2023-04-01T03:58:47.640Z,11.65
2023-04-01T04:03:51.558Z,11.69
2023-04-01T04:08:54.386Z,11.63
2023-04-01T04:13:58.315Z,11.49
2023-04-01T04:19:01.547Z,11.58
2023-04-01T04:24:03.970Z,11.50
2023-04-01T04:29:25.812Z,11.45
2023-04-01T04:34:30.727Z,11.37
2023-04-01T04:39:34.132Z,11.35
2023-04-01T04:44:39.668Z,11.38
2023-04-01T04:49:47.245Z,11.35
2023-04-01T04:54:50.080Z,11.34
2023-04-01T04:59:52.917Z,11.30
2023-04-01T05:05:05.423Z,11.21
2023-04-01T05:10:10.382Z,11.27
2023-04-01T05:15:12.763Z,11.39
2023-04-01T05:20:16.986Z,11.39
2023-04-01T05:25:19.708Z,11.31
2023-04-01T05:30:22.477Z,11.23
2023-04-01T05:35:40.450Z,11.18
2023-04-01T05:40:43.750Z,10.72
2023-04-01T05:45:46.874Z,10.96
2023-04-01T05:50:51.085Z,11.05
2023-04-01T05:55:54.683Z,11.11
2023-04-01T06:01:11.247Z,11.13
2023-04-01T06:06:27.888Z,11.13
2023-04-01T06:11:48.212Z,11.16
2023-04-01T06:17:11.860Z,11.21
2023-04-01T06:22:14.015Z,11.23
2023-04-01T06:27:43.733Z,11.28
2023-04-01T06:33:02.086Z,11.32
2023-04-01T06:38:38.010Z,11.52
2023-04-01T06:44:19.988Z,11.61
2023-04-01T06:49:51.004Z,11.53
2023-04-01T06:55:28.497Z,11.38
2023-04-01T07:01:02.353Z,11.56
2023-04-01T07:06:07.060Z,11.68
2023-04-01T07:11:27.783Z,11.78
2023-04-01T07:16:54.754Z,11.82
2023-04-01T07:22:04.822Z,11.77
2023-04-01T07:27:28.221Z,11.88
2023-04-01T07:32:37.479Z,11.93
2023-04-01T07:38:13.066Z,12.03
2023-04-01T07:43:43.310Z,12.24
2023-04-01T07:49:12.318Z,12.42
2023-04-01T07:54:34.868Z,12.62
2023-04-01T08:00:07.695Z,12.91
2023-04-01T08:05:40.938Z,13.08
2023-04-01T08:11:13.823Z,13.11
2023-04-01T08:16:51.548Z,13.35
2023-04-01T08:22:10.146Z,13.62
2023-04-01T08:27:19.724Z,13.91
2023-04-01T08:32:44.343Z,14.31
2023-04-01T08:37:51.966Z,14.53
2023-04-01T08:43:38.270Z,14.65
2023-04-01T08:49:06.242Z,15.07
2023-04-01T08:54:18.466Z,15.56
2023-04-01T09:00:12.476Z,16.02
2023-04-01T09:05:50.918Z,15.89
2023-04-01T09:11:28.404Z,15.87
2023-04-01T09:17:21.110Z,15.89
2023-04-01T09:22:26.064Z,15.99
2023-04-01T09:27:34.033Z,16.06
2023-04-01T09:32:52.243Z,16.13
2023-04-01T09:38:13.240Z,15.89
2023-04-01T09:43:24.011Z,15.71
2023-04-01T09:56:14.268Z,15.82
2023-04-01T10:01:58.288Z,16.17
2023-04-01T10:07:31.425Z,16.72
2023-04-01T10:13:01.534Z,16.77
2023-04-01T10:18:22.903Z,16.48
2023-04-01T10:23:50.620Z,16.52
2023-04-01T10:29:40.258Z,16.50
2023-04-01T10:35:13.056Z,16.61
2023-04-01T10:40:41.653Z,16.46
2023-04-01T10:46:56.233Z,16.54
2023-04-01T10:52:31.835Z,16.75
2023-04-01T10:57:58.609Z,16.90
2023-04-01T11:04:08.048Z,17.12
2023-04-01T11:09:32.979Z,17.02
2023-04-01T11:15:00.569Z,16.89
2023-04-01T11:20:37.569Z,16.73
2023-04-01T11:25:55.031Z,16.95
2023-04-01T11:31:47.627Z,17.55
2023-04-01T11:36:58.535Z,17.39
2023-04-01T11:42:50.863Z,17.60
2023-04-01T11:48:26.441Z,17.45
2023-04-01T11:53:37.961Z,17.08
2023-04-01T11:59:11.441Z,16.89
2023-04-01T12:04:21.213Z,16.82
2023-04-01T12:09:53.460Z,17.38
2023-04-01T12:15:06.363Z,17.84
2023-04-01T12:20:32.262Z,17.97
2023-04-01T12:25:47.910Z,17.94
2023-04-01T12:31:01.403Z,17.83
2023-04-01T12:36:23.676Z,17.83
2023-04-01T12:41:28.608Z,17.56
2023-04-01T12:46:55.498Z,17.40
2023-04-01T12:52:25.475Z,17.54
2023-04-01T12:57:54.780Z,17.44
2023-04-01T13:03:41.184Z,17.48
2023-04-01T13:09:09.088Z,17.74
2023-04-01T13:14:31.892Z,17.76
2023-04-01T13:20:06.381Z,17.57
2023-04-01T13:25:36.532Z,17.56
2023-04-01T13:30:57.529Z,17.70
2023-04-01T13:36:12.854Z,17.66
2023-04-01T13:41:46.284Z,17.60
2023-04-01T13:47:03.068Z,17.67
2023-04-01T13:52:26.540Z,17.80
2023-04-01T13:57:57.314Z,17.85
2023-04-01T14:03:20.279Z,17.78
2023-04-01T14:08:51.468Z,17.75
2023-04-01T14:14:31.799Z,17.95
2023-04-01T14:19:50.952Z,18.12
2023-04-01T14:25:20.226Z,18.38
2023-04-01T14:30:49.017Z,18.65
2023-04-01T14:35:55.402Z,18.28
2023-04-01T14:41:02.496Z,18.13
2023-04-01T14:46:29.834Z,18.03
2023-04-01T14:51:41.325Z,17.92
2023-04-01T14:56:54.746Z,18.34
2023-04-01T15:02:34.428Z,18.56
2023-04-01T15:07:47.519Z,18.61
2023-04-01T15:12:54.732Z,18.58
2023-04-01T15:18:09.297Z,18.76
2023-04-01T15:23:14.161Z,18.75
2023-04-01T15:28:18.834Z,18.75
2023-04-01T15:33:23.676Z,18.66
2023-04-01T15:38:42.308Z,18.56
2023-04-01T15:43:50.379Z,18.68
2023-04-01T15:49:15.067Z,18.72
2023-04-01T15:54:48.669Z,18.63
2023-04-01T16:00:12.296Z,18.65
2023-04-01T16:05:46.763Z,18.66
2023-04-01T16:11:07.303Z,18.60
2023-04-01T16:16:27.907Z,18.68
2023-04-01T16:21:40.274Z,18.62
2023-04-01T16:26:54.176Z,18.72
2023-04-01T16:32:24.101Z,18.90
2023-04-01T16:37:54.546Z,19.01
2023-04-01T16:43:30.200Z,18.94
2023-04-01T16:48:51.414Z,18.80
2023-04-01T16:54:26.197Z,18.59
2023-04-01T16:59:51.562Z,18.35
2023-04-01T17:05:10.757Z,18.20
2023-04-01T17:11:01.420Z,18.10
2023-04-01T17:16:26.750Z,17.95
2023-04-01T17:21:53.562Z,17.93
2023-04-01T17:27:24.732Z,17.86
2023-04-01T17:33:18.734Z,17.73
2023-04-01T17:38:58.121Z,17.73
2023-04-01T17:44:22.186Z,17.58
2023-04-01T17:49:52.009Z,17.45
2023-04-01T17:55:23.321Z,17.40
2023-04-01T18:01:02.736Z,17.33
2023-04-01T18:06:19.248Z,17.12
2023-04-01T18:11:46.934Z,17.08
2023-04-01T18:16:52.256Z,17.05
2023-04-01T18:22:19.542Z,16.97
2023-04-01T18:27:40.138Z,16.75
2023-04-01T18:32:57.042Z,16.69
2023-04-01T18:38:08.067Z,16.65
2023-04-01T18:43:39.053Z,16.48
2023-04-01T18:48:48.659Z,16.46
2023-04-01T18:54:00.631Z,16.34
2023-04-01T18:59:11.398Z,16.28
2023-04-01T19:04:43.806Z,16.09
2023-04-01T19:09:49.654Z,16.03
2023-04-01T19:15:00.936Z,16.04
2023-04-01T19:20:19.554Z,15.88
2023-04-01T19:25:34.737Z,15.87
2023-04-01T19:30:47.267Z,15.84
2023-04-01T19:36:09.520Z,15.74
2023-04-01T19:41:28.260Z,15.66
2023-04-01T19:46:36.642Z,15.62
2023-04-01T19:51:57.397Z,15.56
2023-04-01T19:57:03.357Z,15.51
2023-04-01T20:02:35.911Z,15.42
2023-04-01T20:07:54.601Z,15.32
2023-04-01T20:13:02.999Z,15.31
2023-04-01T20:18:48.534Z,15.16
2023-04-01T20:24:28.063Z,15.08
2023-04-01T20:30:04.649Z,14.95
2023-04-01T20:35:07.262Z,14.91
2023-04-01T20:40:27.623Z,14.83
2023-04-01T20:45:36.072Z,14.70
2023-04-01T20:50:47.432Z,14.68
2023-04-01T20:56:14.536Z,14.50
2023-04-01T21:01:35.027Z,14.49
2023-04-01T21:06:37.233Z,14.39
2023-04-01T21:12:06.095Z,14.33
2023-04-01T21:17:12.799Z,14.30
2023-04-01T21:22:18.233Z,14.19
2023-04-01T21:27:53.595Z,14.12
2023-04-01T21:33:26.840Z,14.05
2023-04-01T21:38:50.629Z,13.89
2023-04-01T21:44:25.784Z,13.92
2023-04-01T21:49:40.822Z,13.89
2023-04-01T21:54:49.038Z,13.78
2023-04-01T22:00:00.664Z,13.70
2023-04-01T22:05:34.790Z,13.80
2023-04-01T22:11:13.436Z,13.73
2023-04-01T22:16:30.880Z,13.65
2023-04-01T22:21:40.894Z,13.62
2023-04-01T22:27:08.594Z,13.42
2023-04-01T22:32:30.529Z,13.30
2023-04-01T22:37:42.287Z,13.13
2023-04-01T22:42:46.900Z,13.08
2023-04-01T22:48:12.866Z,12.86
2023-04-01T22:53:41.759Z,12.69
2023-04-01T22:58:52.694Z,12.64
2023-04-01T23:03:54.861Z,12.62
2023-04-01T23:09:13.006Z,12.51
2023-04-01T23:14:26.599Z,12.41
2023-04-01T23:20:11.083Z,12.45
2023-04-01T23:25:45.092Z,12.45
2023-04-01T23:30:51.973Z,12.27
2023-04-01T23:36:08.618Z,12.18
2023-04-01T23:41:34.276Z,11.89
2023-04-01T23:46:40.081Z,11.87
2023-04-01T23:52:01.290Z,11.71
2023-04-01T23:57:12.295Z,11.65
